sensor_id;sensor_type;location;lat;lon;timestamp;pressure;altitude;pressure_sealevel;temperature;humidity
77770;BME280;66961;51.482;9.160;2023-09-19T00:01:44;98529.56;;;14.48;100.00
77770;BME280;66961;51.482;9.160;2023-09-19T00:04:09;98530.56;;;14.54;100.00
77770;BME280;66961;51.482;9.160;2023-09-19T00:06:39;98538.78;;;14.52;100.00
77770;BME280;66961;51.482;9.160;2023-09-19T00:09:05;98545.28;;;14.56;100.00
77770;BME280;66961;51.482;9.160;2023-09-19T00:11:30;98554.09;;;14.57;100.00
77770;BME280;66961;51.482;9.160;2023-09-19T00:13:56;98549.44;;;14.52;100.00
77770;BME280;66961;51.482;9.160;2023-09-19T00:16:21;98553.19;;;14.45;100.00
77770;BME280;66961;51.482;9.160;2023-09-19T00:18:47;98566.28;;;14.46;100.00
77770;BME280;66961;51.482;9.160;2023-09-19T00:21:12;98571.25;;;14.43;100.00
77770;BME280;66961;51.482;9.160;2023-09-19T00:23:38;98551.19;;;14.34;100.00
77770;BME280;66961;51.482;9.160;2023-09-19T00:26:03;98555.91;;;14.32;100.00
77770;BME280;66961;51.482;9.160;2023-09-19T00:28:29;98576.63;;;14.30;100.00
77770;BME280;66961;51.482;9.160;2023-09-19T00:30:54;98556.56;;;14.27;100.00
77770;BME280;66961;51.482;9.160;2023-09-19T00:33:20;98565.59;;;14.26;100.00
77770;BME280;66961;51.482;9.160;2023-09-19T00:35:48;98570.69;;;14.28;100.00
77770;BME280;66961;51.482;9.160;2023-09-19T00:38:13;98563.72;;;14.27;100.00
77770;BME280;66961;51.482;9.160;2023-09-19T00:40:46;98559.38;;;14.32;100.00
77770;BME280;66961;51.482;9.160;2023-09-19T00:43:12;98565.72;;;14.38;100.00
77770;BME280;66961;51.482;9.160;2023-09-19T00:45:37;98570.22;;;14.37;100.00
77770;BME280;66961;51.482;9.160;2023-09-19T00:48:03;98569.19;;;14.38;100.00
77770;BME280;66961;51.482;9.160;2023-09-19T00:50:29;98567.13;;;14.40;100.00
77770;BME280;66961;51.482;9.160;2023-09-19T00:52:55;98571.88;;;14.38;100.00
77770;BME280;66961;51.482;9.160;2023-09-19T00:55:21;98571.25;;;14.43;100.00
77770;BME280;66961;51.482;9.160;2023-09-19T00:57:46;98587.47;;;14.41;99.92
77770;BME280;66961;51.482;9.160;2023-09-19T01:00:15;98594.22;;;14.37;100.00
77770;BME280;66961;51.482;9.160;2023-09-19T01:02:44;98584.47;;;14.24;100.00
77770;BME280;66961;51.482;9.160;2023-09-19T01:05:09;98597.56;;;14.26;99.82
77770;BME280;66961;51.482;9.160;2023-09-19T01:07:36;98603.97;;;14.18;99.90
77770;BME280;66961;51.482;9.160;2023-09-19T01:10:06;98602.75;;;14.14;100.00
77770;BME280;66961;51.482;9.160;2023-09-19T01:18:15;98616.50;;;14.11;99.79
77770;BME280;66961;51.482;9.160;2023-09-19T01:21:07;98612.59;;;14.14;98.98
77770;BME280;66961;51.482;9.160;2023-09-19T01:26:30;98626.72;;;14.21;97.43
77770;BME280;66961;51.482;9.160;2023-09-19T01:29:23;98617.25;;;14.25;97.57
77770;BME280;66961;51.482;9.160;2023-09-19T01:31:51;98633.47;;;14.23;97.96
77770;BME280;66961;51.482;9.160;2023-09-19T01:34:17;98623.03;;;14.15;98.31
77770;BME280;66961;51.482;9.160;2023-09-19T01:36:42;98641.31;;;14.12;98.26
77770;BME280;66961;51.482;9.160;2023-09-19T01:39:10;98637.81;;;14.11;97.52
77770;BME280;66961;51.482;9.160;2023-09-19T01:44:06;98645.28;;;14.03;98.29
77770;BME280;66961;51.482;9.160;2023-09-19T01:46:35;98647.16;;;13.96;97.83
77770;BME280;66961;51.482;9.160;2023-09-19T01:51:53;98649.78;;;14.02;96.47
77770;BME280;66961;51.482;9.160;2023-09-19T01:54:31;98627.88;;;14.00;96.90
77770;BME280;66961;51.482;9.160;2023-09-19T01:56:59;98650.94;;;14.13;96.91
77770;BME280;66961;51.482;9.160;2023-09-19T01:59:28;98647.66;;;14.11;95.08
77770;BME280;66961;51.482;9.160;2023-09-19T02:01:58;98646.66;;;14.05;94.40
77770;BME280;66961;51.482;9.160;2023-09-19T02:04:24;98655.94;;;14.03;93.27
77770;BME280;66961;51.482;9.160;2023-09-19T02:06:49;98648.31;;;14.06;92.39
77770;BME280;66961;51.482;9.160;2023-09-19T02:09:14;98641.19;;;14.00;90.73
77770;BME280;66961;51.482;9.160;2023-09-19T02:11:40;98651.56;;;14.08;90.30
77770;BME280;66961;51.482;9.160;2023-09-19T02:14:05;98658.13;;;14.06;90.58
77770;BME280;66961;51.482;9.160;2023-09-19T02:16:31;98658.00;;;13.94;91.15
77770;BME280;66961;51.482;9.160;2023-09-19T02:18:56;98672.34;;;13.93;90.70
77770;BME280;66961;51.482;9.160;2023-09-19T02:21:21;98662.53;;;13.87;90.84
77770;BME280;66961;51.482;9.160;2023-09-19T02:23:46;98676.28;;;13.84;90.88
77770;BME280;66961;51.482;9.160;2023-09-19T02:26:12;98675.88;;;13.80;90.30
77770;BME280;66961;51.482;9.160;2023-09-19T02:28:37;98675.25;;;13.85;89.53
77770;BME280;66961;51.482;9.160;2023-09-19T02:31:02;98678.53;;;13.87;89.12
77770;BME280;66961;51.482;9.160;2023-09-19T02:33:28;98692.06;;;13.79;88.71
77770;BME280;66961;51.482;9.160;2023-09-19T02:35:56;98698.44;;;13.78;88.14
77770;BME280;66961;51.482;9.160;2023-09-19T02:38:22;98690.25;;;13.73;88.57
77770;BME280;66961;51.482;9.160;2023-09-19T02:40:47;98700.09;;;13.66;88.62
77770;BME280;66961;51.482;9.160;2023-09-19T02:43:12;98700.09;;;13.52;89.21
77770;BME280;66961;51.482;9.160;2023-09-19T02:45:38;98708.53;;;13.49;89.31
77770;BME280;66961;51.482;9.160;2023-09-19T02:48:03;98692.78;;;13.41;89.66
77770;BME280;66961;51.482;9.160;2023-09-19T02:50:28;98701.78;;;13.40;89.33
77770;BME280;66961;51.482;9.160;2023-09-19T02:52:54;98700.56;;;13.36;88.78
77770;BME280;66961;51.482;9.160;2023-09-19T02:55:19;98704.25;;;13.35;88.67
77770;BME280;66961;51.482;9.160;2023-09-19T02:57:48;98704.66;;;13.32;89.04
77770;BME280;66961;51.482;9.160;2023-09-19T03:00:14;98703.44;;;13.28;88.91
77770;BME280;66961;51.482;9.160;2023-09-19T03:02:40;98709.78;;;13.27;88.88
77770;BME280;66961;51.482;9.160;2023-09-19T03:05:06;98713.25;;;13.21;89.35
77770;BME280;66961;51.482;9.160;2023-09-19T03:07:31;98706.06;;;13.15;89.22
77770;BME280;66961;51.482;9.160;2023-09-19T03:09:56;98712.59;;;13.12;89.09
77770;BME280;66961;51.482;9.160;2023-09-19T03:12:22;98704.84;;;13.11;89.86
77770;BME280;66961;51.482;9.160;2023-09-19T03:14:48;98694.81;;;13.06;89.51
77770;BME280;66961;51.482;9.160;2023-09-19T03:17:13;98707.50;;;13.11;88.42
77770;BME280;66961;51.482;9.160;2023-09-19T03:19:38;98712.03;;;13.17;88.22
77770;BME280;66961;51.482;9.160;2023-09-19T03:22:06;98701.59;;;13.35;86.92
77770;BME280;66961;51.482;9.160;2023-09-19T03:24:32;98698.50;;;13.38;86.91
77770;BME280;66961;51.482;9.160;2023-09-19T03:26:57;98713.25;;;13.47;85.78
77770;BME280;66961;51.482;9.160;2023-09-19T03:29:22;98710.78;;;13.46;85.57
77770;BME280;66961;51.482;9.160;2023-09-19T03:31:48;98718.78;;;13.46;86.13
77770;BME280;66961;51.482;9.160;2023-09-19T03:34:13;98709.97;;;13.39;85.87
77770;BME280;66961;51.482;9.160;2023-09-19T03:36:39;98726.97;;;13.38;86.65
77770;BME280;66961;51.482;9.160;2023-09-19T03:39:04;98723.28;;;13.32;87.20
77770;BME280;66961;51.482;9.160;2023-09-19T03:41:29;98726.97;;;13.31;87.58
77770;BME280;66961;51.482;9.160;2023-09-19T03:43:54;98722.47;;;13.32;87.67
77770;BME280;66961;51.482;9.160;2023-09-19T03:46:20;98725.13;;;13.32;88.34
77770;BME280;66961;51.482;9.160;2023-09-19T03:48:45;98733.94;;;13.32;88.40
77770;BME280;66961;51.482;9.160;2023-09-19T03:51:10;98730.88;;;13.35;86.90
77770;BME280;66961;51.482;9.160;2023-09-19T03:53:35;98726.56;;;13.41;85.28
77770;BME280;66961;51.482;9.160;2023-09-19T03:56:01;98736.38;;;13.40;85.68
77770;BME280;66961;51.482;9.160;2023-09-19T03:58:26;98740.06;;;13.39;85.33
77770;BME280;66961;51.482;9.160;2023-09-19T04:00:55;98734.13;;;13.31;85.64
77770;BME280;66961;51.482;9.160;2023-09-19T04:03:20;98734.56;;;13.28;85.72
77770;BME280;66961;51.482;9.160;2023-09-19T04:05:46;98729.44;;;13.26;85.04
77770;BME280;66961;51.482;9.160;2023-09-19T04:08:12;98733.53;;;13.29;85.39
77770;BME280;66961;51.482;9.160;2023-09-19T04:10:37;98740.50;;;13.30;85.39
77770;BME280;66961;51.482;9.160;2023-09-19T04:13:03;98733.72;;;13.20;85.93
77770;BME280;66961;51.482;9.160;2023-09-19T04:15:28;98734.75;;;13.19;86.12
77770;BME280;66961;51.482;9.160;2023-09-19T04:17:53;98739.47;;;13.17;86.59
77770;BME280;66961;51.482;9.160;2023-09-19T04:20:18;98741.28;;;13.17;87.28
77770;BME280;66961;51.482;9.160;2023-09-19T04:22:44;98741.06;;;13.12;87.13
77770;BME280;66961;51.482;9.160;2023-09-19T04:25:09;98747.81;;;13.14;87.37
77770;BME280;66961;51.482;9.160;2023-09-19T04:27:34;98744.34;;;13.14;87.80
77770;BME280;66961;51.482;9.160;2023-09-19T04:30:00;98729.03;;;13.16;87.68
77770;BME280;66961;51.482;9.160;2023-09-19T04:32:28;98741.31;;;13.23;87.17
77770;BME280;66961;51.482;9.160;2023-09-19T04:34:54;98733.72;;;13.27;87.39
77770;BME280;66961;51.482;9.160;2023-09-19T04:37:19;98748.25;;;13.31;87.74
77770;BME280;66961;51.482;9.160;2023-09-19T04:39:44;98740.28;;;13.31;87.56
77770;BME280;66961;51.482;9.160;2023-09-19T04:42:09;98747.03;;;13.34;88.21
77770;BME280;66961;51.482;9.160;2023-09-19T04:44:35;98740.06;;;13.26;90.06
77770;BME280;66961;51.482;9.160;2023-09-19T04:47:00;98752.56;;;13.25;91.40
77770;BME280;66961;51.482;9.160;2023-09-19T04:49:25;98736.16;;;13.15;91.74
77770;BME280;66961;51.482;9.160;2023-09-19T04:51:50;98747.44;;;13.17;91.80
77770;BME280;66961;51.482;9.160;2023-09-19T04:54:16;98746.59;;;13.10;91.50
77770;BME280;66961;51.482;9.160;2023-09-19T04:56:41;98759.47;;;13.13;92.15
77770;BME280;66961;51.482;9.160;2023-09-19T04:59:06;98749.84;;;13.06;93.04
77770;BME280;66961;51.482;9.160;2023-09-19T05:01:31;98758.84;;;13.05;93.19
77770;BME280;66961;51.482;9.160;2023-09-19T05:03:56;98763.38;;;12.98;93.39
77770;BME280;66961;51.482;9.160;2023-09-19T05:06:22;98752.91;;;12.89;92.85
77770;BME280;66961;51.482;9.160;2023-09-19T05:08:48;98758.44;;;12.88;93.76
77770;BME280;66961;51.482;9.160;2023-09-19T05:11:13;98758.44;;;12.81;93.25
77770;BME280;66961;51.482;9.160;2023-09-19T05:13:38;98770.09;;;12.80;93.23
77770;BME280;66961;51.482;9.160;2023-09-19T05:16:04;98776.41;;;12.79;92.69
77770;BME280;66961;51.482;9.160;2023-09-19T05:18:29;98779.47;;;12.76;92.76
77770;BME280;66961;51.482;9.160;2023-09-19T05:20:54;98780.28;;;12.70;93.14
77770;BME280;66961;51.482;9.160;2023-09-19T05:23:20;98788.47;;;12.69;93.65
77770;BME280;66961;51.482;9.160;2023-09-19T05:25:45;98788.22;;;12.57;93.11
77770;BME280;66961;51.482;9.160;2023-09-19T05:28:10;98804.38;;;12.62;93.11
77770;BME280;66961;51.482;9.160;2023-09-19T05:30:36;98816.03;;;12.61;93.06
77770;BME280;66961;51.482;9.160;2023-09-19T05:33:02;98821.34;;;12.61;93.15
77770;BME280;66961;51.482;9.160;2023-09-19T05:35:27;98819.72;;;12.60;93.04
77770;BME280;66961;51.482;9.160;2023-09-19T05:37:54;98818.28;;;12.64;92.62
77770;BME280;66961;51.482;9.160;2023-09-19T05:40:19;98822.19;;;12.68;92.16
77770;BME280;66961;51.482;9.160;2023-09-19T05:42:45;98824.47;;;12.71;91.74
77770;BME280;66961;51.482;9.160;2023-09-19T05:45:11;98829.63;;;12.86;85.23
77770;BME280;66961;51.482;9.160;2023-09-19T05:47:36;98841.53;;;12.97;85.45
77770;BME280;66961;51.482;9.160;2023-09-19T05:50:01;98838.47;;;13.00;86.39
77770;BME280;66961;51.482;9.160;2023-09-19T05:52:27;98839.50;;;12.99;85.53
77770;BME280;66961;51.482;9.160;2023-09-19T05:54:52;98849.09;;;13.06;83.23
77770;BME280;66961;51.482;9.160;2023-09-19T05:57:17;98845.22;;;13.09;81.68
77770;BME280;66961;51.482;9.160;2023-09-19T05:59:42;98858.53;;;13.15;78.56
77770;BME280;66961;51.482;9.160;2023-09-19T06:02:08;98863.94;;;13.29;77.72
77770;BME280;66961;51.482;9.160;2023-09-19T06:04:33;98856.97;;;13.34;77.21
77770;BME280;66961;51.482;9.160;2023-09-19T06:06:58;98865.59;;;13.43;75.98
77770;BME280;66961;51.482;9.160;2023-09-19T06:09:24;98868.66;;;13.46;75.54
77770;BME280;66961;51.482;9.160;2023-09-19T06:11:49;98855.34;;;13.53;75.06
77770;BME280;66961;51.482;9.160;2023-09-19T06:14:14;98855.34;;;13.53;74.29
77770;BME280;66961;51.482;9.160;2023-09-19T06:16:39;98866.41;;;13.56;73.90
77770;BME280;66961;51.482;9.160;2023-09-19T06:19:05;98867.84;;;13.59;74.16
77770;BME280;66961;51.482;9.160;2023-09-19T06:21:30;98884.22;;;13.63;73.63
77770;BME280;66961;51.482;9.160;2023-09-19T06:23:55;98895.28;;;13.66;73.20
77770;BME280;66961;51.482;9.160;2023-09-19T06:26:21;98888.13;;;13.67;73.50
77770;BME280;66961;51.482;9.160;2023-09-19T06:28:46;98897.75;;;13.68;73.46
77770;BME280;66961;51.482;9.160;2023-09-19T06:31:11;98901.44;;;13.73;73.98
77770;BME280;66961;51.482;9.160;2023-09-19T06:33:37;98904.53;;;13.77;73.55
77770;BME280;66961;51.482;9.160;2023-09-19T06:36:03;98900.84;;;13.78;74.94
77770;BME280;66961;51.482;9.160;2023-09-19T06:38:28;98911.69;;;13.83;75.00
77770;BME280;66961;51.482;9.160;2023-09-19T06:40:53;98904.53;;;13.83;74.52
77770;BME280;66961;51.482;9.160;2023-09-19T06:43:18;98909.47;;;13.93;73.04
77770;BME280;66961;51.482;9.160;2023-09-19T06:45:45;98916.00;;;13.97;73.39
77770;BME280;66961;51.482;9.160;2023-09-19T06:48:10;98916.22;;;14.02;73.52
77770;BME280;66961;51.482;9.160;2023-09-19T06:50:35;98918.25;;;14.07;72.35
77770;BME280;66961;51.482;9.160;2023-09-19T06:53:01;98909.22;;;14.14;72.60
77770;BME280;66961;51.482;9.160;2023-09-19T06:55:26;98915.56;;;14.13;71.60
77770;BME280;66961;51.482;9.160;2023-09-19T06:57:52;98914.75;;;14.19;71.89
77770;BME280;66961;51.482;9.160;2023-09-19T07:00:17;98904.50;;;14.23;72.09
77770;BME280;66961;51.482;9.160;2023-09-19T07:02:42;98905.72;;;14.20;72.52
77770;BME280;66961;51.482;9.160;2023-09-19T07:05:08;98911.66;;;14.22;72.72
77770;BME280;66961;51.482;9.160;2023-09-19T07:07:33;98910.22;;;14.27;73.01
77770;BME280;66961;51.482;9.160;2023-09-19T07:09:58;98918.03;;;14.35;72.71
77770;BME280;66961;51.482;9.160;2023-09-19T07:12:24;98918.03;;;14.35;72.85
77770;BME280;66961;51.482;9.160;2023-09-19T07:14:49;98917.19;;;14.34;72.70
77770;BME280;66961;51.482;9.160;2023-09-19T07:17:14;98922.31;;;14.36;73.29
77770;BME280;66961;51.482;9.160;2023-09-19T07:19:39;98912.47;;;14.36;75.16
77770;BME280;66961;51.482;9.160;2023-09-19T07:22:05;98918.84;;;14.35;75.39
77770;BME280;66961;51.482;9.160;2023-09-19T07:24:30;98919.03;;;14.40;74.20
77770;BME280;66961;51.482;9.160;2023-09-19T07:26:55;98916.78;;;14.50;73.20
77770;BME280;66961;51.482;9.160;2023-09-19T07:29:20;98909.56;;;14.57;72.66
77770;BME280;66961;51.482;9.160;2023-09-19T07:31:46;98913.66;;;14.60;72.43
77770;BME280;66961;51.482;9.160;2023-09-19T07:34:11;98920.66;;;14.61;72.81
77770;BME280;66961;51.482;9.160;2023-09-19T07:36:36;98914.66;;;14.72;72.66
77770;BME280;66961;51.482;9.160;2023-09-19T07:39:02;98917.31;;;14.79;73.33
77770;BME280;66961;51.482;9.160;2023-09-19T07:41:27;98927.13;;;14.92;72.40
77770;BME280;66961;51.482;9.160;2023-09-19T07:43:52;98925.06;;;14.94;71.20
77770;BME280;66961;51.482;9.160;2023-09-19T07:46:17;98924.19;;;15.06;73.23
77770;BME280;66961;51.482;9.160;2023-09-19T07:48:43;98923.53;;;15.11;72.69
77770;BME280;66961;51.482;9.160;2023-09-19T07:51:08;98924.56;;;15.10;70.88
77770;BME280;66961;51.482;9.160;2023-09-19T07:53:34;98928.44;;;15.14;71.74
77770;BME280;66961;51.482;9.160;2023-09-19T07:56:05;98931.09;;;15.20;71.85
77770;BME280;66961;51.482;9.160;2023-09-19T07:58:30;98926.38;;;15.16;71.40
77770;BME280;66961;51.482;9.160;2023-09-19T08:00:55;98932.16;;;15.13;72.45
77770;BME280;66961;51.482;9.160;2023-09-19T08:03:21;98928.88;;;15.11;72.27
77770;BME280;66961;51.482;9.160;2023-09-19T08:05:46;98941.38;;;15.17;72.28
77770;BME280;66961;51.482;9.160;2023-09-19T08:08:11;98939.75;;;15.16;71.83
77770;BME280;66961;51.482;9.160;2023-09-19T08:10:36;98947.09;;;15.27;71.63
77770;BME280;66961;51.482;9.160;2023-09-19T08:13:02;98943.81;;;15.25;71.39
77770;BME280;66961;51.482;9.160;2023-09-19T08:15:27;98945.91;;;15.16;71.32
77770;BME280;66961;51.482;9.160;2023-09-19T08:17:52;98934.59;;;15.21;71.33
77770;BME280;66961;51.482;9.160;2023-09-19T08:20:17;98945.03;;;15.29;71.30
77770;BME280;66961;51.482;9.160;2023-09-19T08:22:46;98935.69;;;15.45;70.40
77770;BME280;66961;51.482;9.160;2023-09-19T08:25:12;98947.78;;;15.54;69.88
77770;BME280;66961;51.482;9.160;2023-09-19T08:27:37;98938.34;;;15.51;70.34
77770;BME280;66961;51.482;9.160;2023-09-19T08:30:03;98947.91;;;15.66;70.57
77770;BME280;66961;51.482;9.160;2023-09-19T08:32:29;98960.53;;;15.59;69.96
77770;BME280;66961;51.482;9.160;2023-09-19T08:34:54;98937.91;;;15.54;70.45
77770;BME280;66961;51.482;9.160;2023-09-19T08:37:19;98944.88;;;15.55;71.32
77770;BME280;66961;51.482;9.160;2023-09-19T08:39:44;98955.00;;;15.47;71.92
77770;BME280;66961;51.482;9.160;2023-09-19T08:42:10;98958.25;;;15.55;71.14
77770;BME280;66961;51.482;9.160;2023-09-19T08:44:38;98945.53;;;15.58;69.23
77770;BME280;66961;51.482;9.160;2023-09-19T08:47:10;98955.41;;;15.82;70.82
77770;BME280;66961;51.482;9.160;2023-09-19T08:49:53;98951.50;;;15.84;70.90
77770;BME280;66961;51.482;9.160;2023-09-19T08:52:32;98957.09;;;16.08;69.11
77770;BME280;66961;51.482;9.160;2023-09-19T08:55:02;98942.75;;;16.20;69.61
77770;BME280;66961;51.482;9.160;2023-09-19T08:57:29;98944.31;;;16.53;68.46
77770;BME280;66961;51.482;9.160;2023-09-19T08:59:55;98934.31;;;16.85;67.55
77770;BME280;66961;51.482;9.160;2023-09-19T09:02:22;98940.06;;;16.88;66.80
77770;BME280;66961;51.482;9.160;2023-09-19T09:04:49;98953.00;;;17.10;66.47
77770;BME280;66961;51.482;9.160;2023-09-19T09:07:16;98946.16;;;17.14;63.40
77770;BME280;66961;51.482;9.160;2023-09-19T09:09:42;98943.09;;;17.10;63.77
77770;BME280;66961;51.482;9.160;2023-09-19T09:12:10;98950.94;;;17.24;63.43
77770;BME280;66961;51.482;9.160;2023-09-19T09:14:36;98955.72;;;17.21;63.61
77770;BME280;66961;51.482;9.160;2023-09-19T09:17:01;98955.63;;;17.28;63.32
77770;BME280;66961;51.482;9.160;2023-09-19T09:19:27;98943.47;;;17.44;61.48
77770;BME280;66961;51.482;9.160;2023-09-19T09:21:52;98951.38;;;17.39;63.61
77770;BME280;66961;51.482;9.160;2023-09-19T09:24:30;98942.84;;;17.60;63.30
77770;BME280;66961;51.482;9.160;2023-09-19T09:26:56;98935.78;;;17.66;61.95
77770;BME280;66961;51.482;9.160;2023-09-19T09:29:47;98951.56;;;17.56;61.36
77770;BME280;66961;51.482;9.160;2023-09-19T09:32:31;98950.84;;;17.48;61.88
77770;BME280;66961;51.482;9.160;2023-09-19T09:34:58;98963.28;;;17.73;60.61
77770;BME280;66961;51.482;9.160;2023-09-19T09:37:25;98953.56;;;17.60;61.88
77770;BME280;66961;51.482;9.160;2023-09-19T09:39:54;98953.88;;;17.82;59.96
77770;BME280;66961;51.482;9.160;2023-09-19T09:42:35;98962.63;;;17.89;58.87
77770;BME280;66961;51.482;9.160;2023-09-19T09:45:18;98962.53;;;17.96;58.80
77770;BME280;66961;51.482;9.160;2023-09-19T09:47:45;98964.28;;;17.90;59.92
77770;BME280;66961;51.482;9.160;2023-09-19T09:50:11;98966.25;;;17.95;58.37
77770;BME280;66961;51.482;9.160;2023-09-19T09:52:46;98966.66;;;18.10;59.12
77770;BME280;66961;51.482;9.160;2023-09-19T09:55:11;98966.63;;;18.22;58.32
77770;BME280;66961;51.482;9.160;2023-09-19T09:57:36;98959.84;;;17.96;56.75
77770;BME280;66961;51.482;9.160;2023-09-19T10:00:02;98964.09;;;18.15;57.15
77770;BME280;66961;51.482;9.160;2023-09-19T10:02:35;98965.25;;;18.42;56.65
77770;BME280;66961;51.482;9.160;2023-09-19T10:05:14;98966.00;;;18.61;56.64
77770;BME280;66961;51.482;9.160;2023-09-19T10:07:40;98961.41;;;18.73;56.98
77770;BME280;66961;51.482;9.160;2023-09-19T10:10:06;98957.09;;;18.96;55.96
77770;BME280;66961;51.482;9.160;2023-09-19T10:12:32;98960.84;;;18.60;53.73
77770;BME280;66961;51.482;9.160;2023-09-19T10:15:00;98957.47;;;18.52;53.62
77770;BME280;66961;51.482;9.160;2023-09-19T10:17:29;98970.44;;;18.67;53.25
77770;BME280;66961;51.482;9.160;2023-09-19T10:19:56;98966.91;;;18.55;51.83
77770;BME280;66961;51.482;9.160;2023-09-19T10:22:21;98968.53;;;18.56;52.15
77770;BME280;66961;51.482;9.160;2023-09-19T10:24:47;98964.09;;;18.73;52.01
77770;BME280;66961;51.482;9.160;2023-09-19T10:27:13;98962.75;;;18.71;53.34
77770;BME280;66961;51.482;9.160;2023-09-19T10:29:39;98959.56;;;18.50;51.81
77770;BME280;66961;51.482;9.160;2023-09-19T10:32:06;98972.06;;;18.68;53.22
77770;BME280;66961;51.482;9.160;2023-09-19T10:34:38;98964.09;;;18.73;49.83
77770;BME280;66961;51.482;9.160;2023-09-19T10:37:05;98956.88;;;18.74;49.94
77770;BME280;66961;51.482;9.160;2023-09-19T10:39:32;98957.13;;;18.61;51.80
77770;BME280;66961;51.482;9.160;2023-09-19T10:42:01;98972.84;;;18.80;52.43
77770;BME280;66961;51.482;9.160;2023-09-19T10:44:28;98963.63;;;18.53;51.97
77770;BME280;66961;51.482;9.160;2023-09-19T10:46:57;98958.50;;;18.28;50.72
77770;BME280;66961;51.482;9.160;2023-09-19T10:49:22;98971.56;;;18.36;52.74
77770;BME280;66961;51.482;9.160;2023-09-19T10:51:51;98962.09;;;18.34;51.94
77770;BME280;66961;51.482;9.160;2023-09-19T10:54:18;98951.84;;;18.19;51.48
77770;BME280;66961;51.482;9.160;2023-09-19T10:56:48;98963.63;;;18.18;51.05
77770;BME280;66961;51.482;9.160;2023-09-19T10:59:18;98963.03;;;18.16;51.08
77770;BME280;66961;51.482;9.160;2023-09-19T11:04:29;98948.47;;;18.47;52.28
77770;BME280;66961;51.482;9.160;2023-09-19T11:07:07;98963.06;;;18.51;50.83
77770;BME280;66961;51.482;9.160;2023-09-19T11:09:55;98959.91;;;18.77;51.57
77770;BME280;66961;51.482;9.160;2023-09-19T11:14:55;98961.28;;;18.92;50.84
77770;BME280;66961;51.482;9.160;2023-09-19T11:28:29;98970.59;;;19.12;50.32
77770;BME280;66961;51.482;9.160;2023-09-19T11:30:55;98965.50;;;19.28;49.18
77770;BME280;66961;51.482;9.160;2023-09-19T11:33:21;98964.78;;;19.04;49.63
77770;BME280;66961;51.482;9.160;2023-09-19T11:43:49;98955.34;;;19.87;48.28
77770;BME280;66961;51.482;9.160;2023-09-19T11:46:14;98952.06;;;19.68;48.34
77770;BME280;66961;51.482;9.160;2023-09-19T11:48:40;98955.25;;;19.65;50.28
77770;BME280;66961;51.482;9.160;2023-09-19T11:51:13;98956.16;;;19.70;50.39
77770;BME280;66961;51.482;9.160;2023-09-19T11:53:39;98946.38;;;19.64;50.63
77770;BME280;66961;51.482;9.160;2023-09-19T11:56:06;98934.88;;;19.86;47.90
77770;BME280;66961;51.482;9.160;2023-09-19T11:58:31;98931.41;;;20.19;46.32
77770;BME280;66961;51.482;9.160;2023-09-19T12:00:59;98941.03;;;20.48;46.48
77770;BME280;66961;51.482;9.160;2023-09-19T12:03:29;98937.63;;;20.74;46.09
77770;BME280;66961;51.482;9.160;2023-09-19T12:05:54;98944.25;;;20.67;44.58
77770;BME280;66961;51.482;9.160;2023-09-19T12:08:19;98933.38;;;20.78;44.61
77770;BME280;66961;51.482;9.160;2023-09-19T12:10:47;98943.75;;;20.92;44.08
77770;BME280;66961;51.482;9.160;2023-09-19T12:13:16;98943.13;;;20.85;44.18
77770;BME280;66961;51.482;9.160;2023-09-19T12:15:42;98942.28;;;20.79;45.44
77770;BME280;66961;51.482;9.160;2023-09-19T12:18:07;98941.16;;;20.58;45.93
77770;BME280;66961;51.482;9.160;2023-09-19T12:20:44;98942.56;;;20.82;45.55
77770;BME280;66961;51.482;9.160;2023-09-19T12:23:13;98947.78;;;21.33;43.82
77770;BME280;66961;51.482;9.160;2023-09-19T12:25:45;98938.81;;;21.05;44.20
77770;BME280;66961;51.482;9.160;2023-09-19T12:28:10;98939.44;;;21.34;45.17
77770;BME280;66961;51.482;9.160;2023-09-19T12:30:36;98945.25;;;21.21;43.56
77770;BME280;66961;51.482;9.160;2023-09-19T12:33:02;98943.25;;;21.60;44.60
77770;BME280;66961;51.482;9.160;2023-09-19T12:35:32;98933.94;;;21.02;43.57
77770;BME280;66961;51.482;9.160;2023-09-19T12:37:57;98948.34;;;21.13;44.58
77770;BME280;66961;51.482;9.160;2023-09-19T12:40:23;98931.22;;;21.46;44.71
77770;BME280;66961;51.482;9.160;2023-09-19T12:42:49;98933.16;;;20.85;44.53
77770;BME280;66961;51.482;9.160;2023-09-19T12:45:15;98941.28;;;21.07;43.54
77770;BME280;66961;51.482;9.160;2023-09-19T12:53:36;98927.34;;;20.71;44.45
77770;BME280;66961;51.482;9.160;2023-09-19T12:56:01;98927.19;;;20.78;44.72
77770;BME280;66961;51.482;9.160;2023-09-19T12:58:28;98919.34;;;20.98;45.60
77770;BME280;66961;51.482;9.160;2023-09-19T13:00:53;98944.66;;;21.41;43.02
77770;BME280;66961;51.482;9.160;2023-09-19T13:03:25;98928.63;;;21.29;44.66
77770;BME280;66961;51.482;9.160;2023-09-19T13:05:53;98932.63;;;21.05;44.48
77770;BME280;66961;51.482;9.160;2023-09-19T13:08:24;98924.41;;;20.95;45.66
77770;BME280;66961;51.482;9.160;2023-09-19T13:11:13;98925.13;;;21.29;45.59
77770;BME280;66961;51.482;9.160;2023-09-19T13:13:49;98924.56;;;21.54;44.99
77770;BME280;66961;51.482;9.160;2023-09-19T13:16:16;98918.03;;;20.79;46.88
77770;BME280;66961;51.482;9.160;2023-09-19T13:19:00;98916.13;;;20.58;46.59
77770;BME280;66961;51.482;9.160;2023-09-19T13:21:31;98905.88;;;20.38;46.61
77770;BME280;66961;51.482;9.160;2023-09-19T13:24:20;98914.84;;;20.43;46.80
77770;BME280;66961;51.482;9.160;2023-09-19T13:26:45;98905.06;;;19.87;47.51
77770;BME280;66961;51.482;9.160;2023-09-19T13:29:11;98908.16;;;19.96;49.20
77770;BME280;66961;51.482;9.160;2023-09-19T13:31:37;98909.00;;;20.68;46.55
77770;BME280;66961;51.482;9.160;2023-09-19T13:34:02;98890.91;;;21.29;45.68
77770;BME280;66961;51.482;9.160;2023-09-19T13:36:27;98890.81;;;21.02;46.04
77770;BME280;66961;51.482;9.160;2023-09-19T13:38:53;98902.59;;;21.18;46.13
77770;BME280;66961;51.482;9.160;2023-09-19T13:41:18;98897.50;;;21.70;44.77
77770;BME280;66961;51.482;9.160;2023-09-19T13:43:43;98909.75;;;21.88;43.03